Time;durP1;ratioP1;P1;durP2;ratioP2;P2;SDS_P1;SDS_P2;PMS_P1;PMS_P2;Temp;Humidity;BMP_temperature;BMP_pressure;BME280_temperature;BME280_humidity;BME280_pressure;Samples;Min_cycle;Max_cycle;Signal;HPM_P1;HPM_P2
2022/05/30 00:00:24;;;;;;;13.55;2.75;;;10.40;99.90;;;;;;5042920;28;20415;-74
2022/05/30 00:02:50;;;;;;;15.48;2.90;;;10.40;99.90;;;;;;5042160;28;20032;-74
2022/05/30 00:05:18;;;;;;;18.23;2.67;;;10.40;99.90;;;;;;5042290;28;20154;-75
2022/05/30 00:07:43;;;;;;;8.23;1.90;;;10.40;99.90;;;;;;5050436;28;20029;-74
2022/05/30 00:10:10;;;;;;;10.70;2.20;;;10.40;99.90;;;;;;5041387;28;20030;-75
2022/05/30 00:12:36;;;;;;;7.97;1.58;;;10.40;99.90;;;;;;5039825;28;20033;-75
2022/05/30 00:15:06;;;;;;;9.75;1.60;;;10.30;99.90;;;;;;5039644;28;20120;-74
2022/05/30 00:17:32;;;;;;;6.95;1.08;;;10.30;99.90;;;;;;5039301;28;20029;-74
2022/05/30 00:19:58;;;;;;;7.75;2.00;;;10.20;99.90;;;;;;5040201;28;20519;-76
2022/05/30 00:22:23;;;;;;;4.45;1.13;;;10.10;99.90;;;;;;5038839;28;20497;-75
2022/05/30 00:24:49;;;;;;;4.82;1.33;;;10.10;99.90;;;;;;5040300;28;20061;-74
2022/05/30 00:27:15;;;;;;;6.05;1.50;;;10.10;99.90;;;;;;5038468;28;20091;-75
2022/05/30 00:29:41;;;;;;;8.68;1.35;;;10.10;99.90;;;;;;5040237;28;20033;-74
2022/05/30 00:32:08;;;;;;;5.70;1.35;;;10.00;99.90;;;;;;5040386;28;20549;-75
2022/05/30 00:34:34;;;;;;;8.32;1.20;;;10.10;99.90;;;;;;5039570;28;20402;-74
2022/05/30 00:37:00;;;;;;;11.35;2.40;;;10.00;99.90;;;;;;5038063;28;20040;-74
2022/05/30 00:39:26;;;;;;;7.85;1.38;;;10.10;99.90;;;;;;5038125;28;20017;-75
2022/05/30 00:41:52;;;;;;;6.18;1.23;;;10.00;99.90;;;;;;5037016;28;20414;-75
2022/05/30 00:44:17;;;;;;;7.20;1.30;;;10.20;99.90;;;;;;5034783;28;20017;-74
2022/05/30 00:46:43;;;;;;;6.40;2.00;;;10.20;99.90;;;;;;5037662;28;20029;-75
2022/05/30 00:49:13;;;;;;;3.67;1.30;;;10.30;99.90;;;;;;5038467;28;20040;-74
2022/05/30 00:51:48;;;;;;;7.05;1.20;;;10.30;99.90;;;;;;5037027;28;20091;-75
2022/05/30 00:54:21;;;;;;;5.65;1.70;;;10.30;99.90;;;;;;5036334;28;20085;-74
2022/05/30 00:56:51;;;;;;;4.05;1.33;;;10.30;99.90;;;;;;5037244;28;20025;-74
2022/05/30 00:59:17;;;;;;;6.75;1.42;;;10.30;99.90;;;;;;5038883;28;20029;-75
2022/05/30 01:01:43;;;;;;;7.43;1.38;;;10.30;99.90;;;;;;5036032;28;20072;-74
2022/05/30 01:06:58;;;;;;;3.08;1.17;;;10.40;99.90;;;;;;5046082;28;20040;-75
2022/05/30 01:09:31;;;;;;;3.45;1.08;;;10.40;99.90;;;;;;5045951;28;20025;-75
2022/05/30 01:12:02;;;;;;;3.05;1.40;;;10.40;99.90;;;;;;5047538;28;20025;-75
2022/05/30 01:14:35;;;;;;;10.10;1.80;;;10.50;99.90;;;;;;5045247;28;20079;-75
2022/05/30 01:17:02;;;;;;;3.60;1.20;;;10.50;99.90;;;;;;5047409;28;20021;-75
2022/05/30 01:19:58;;;;;;;9.45;2.08;;;10.50;99.90;;;;;;5047700;28;20025;-73
2022/05/30 01:23:02;;;;;;;9.98;1.30;;;10.50;99.90;;;;;;5048407;28;20033;-73
2022/05/30 01:25:34;;;;;;;17.02;2.65;;;10.50;99.90;;;;;;4988189;28;20031;-73
2022/05/30 01:28:22;;;;;;;9.70;1.80;;;10.40;99.90;;;;;;4988287;28;20066;-74
2022/05/30 01:30:52;;;;;;;5.97;1.77;;;10.40;99.90;;;;;;5026258;28;20124;-74
2022/05/30 01:33:19;;;;;;;7.78;1.85;;;10.30;99.90;;;;;;5044702;28;20030;-76
2022/05/30 01:35:44;;;;;;;12.95;2.40;;;10.30;99.90;;;;;;5044886;28;20030;-74
2022/05/30 01:38:10;;;;;;;7.80;1.95;;;10.30;99.90;;;;;;5046033;28;20105;-73
2022/05/30 01:40:36;;;;;;;10.15;1.83;;;10.20;99.90;;;;;;5044644;28;20105;-73
2022/05/30 01:43:01;;;;;;;13.38;2.65;;;10.20;99.90;;;;;;5041741;28;20056;-73
2022/05/30 01:45:27;;;;;;;13.52;2.53;;;10.20;99.90;;;;;;5041891;28;20029;-74
2022/05/30 01:47:54;;;;;;;15.27;2.45;;;10.30;99.90;;;;;;5039186;28;20436;-74
2022/05/30 01:50:21;;;;;;;10.30;2.50;;;10.30;99.90;;;;;;5041504;28;20022;-73
2022/05/30 01:52:47;;;;;;;11.63;1.92;;;10.30;99.90;;;;;;5041689;28;20018;-74
2022/05/30 01:55:13;;;;;;;18.23;2.42;;;10.30;99.90;;;;;;5043251;28;20040;-75
2022/05/30 01:57:38;;;;;;;12.32;2.90;;;10.40;99.90;;;;;;5042064;28;20032;-74
2022/05/30 02:00:06;;;;;;;12.48;2.70;;;10.30;99.90;;;;;;5036947;28;20101;-74
2022/05/30 02:02:33;;;;;;;9.80;2.53;;;10.20;99.90;;;;;;5035894;28;20498;-74
2022/05/30 02:04:59;;;;;;;15.60;2.60;;;10.20;99.90;;;;;;5034453;28;20017;-74
2022/05/30 02:07:26;;;;;;;11.38;2.88;;;10.20;99.90;;;;;;5036849;28;20060;-74
2022/05/30 02:09:51;;;;;;;14.98;2.50;;;10.20;99.90;;;;;;5035002;28;20030;-74
2022/05/30 02:12:17;;;;;;;14.32;3.13;;;10.30;99.90;;;;;;5036867;28;20029;-74
2022/05/30 02:14:44;;;;;;;11.80;2.30;;;10.30;99.90;;;;;;5038821;28;20033;-74
2022/05/30 02:17:10;;;;;;;9.43;2.03;;;10.20;99.90;;;;;;5038323;28;20025;-74
2022/05/30 02:19:41;;;;;;;15.55;3.58;;;10.20;99.90;;;;;;5041559;28;20018;-74
2022/05/30 02:22:09;;;;;;;;;;;10.20;99.90;;;;;;5041453;28;20020;-74
2022/05/30 02:24:35;;;;;;;9.98;2.28;;;10.20;99.90;;;;;;5040503;28;19911;-74
2022/05/30 02:27:02;;;;;;;7.63;2.75;;;10.20;99.90;;;;;;5042812;28;20037;-74
2022/05/30 02:29:27;;;;;;;11.43;2.88;;;10.20;99.90;;;;;;5040672;28;20064;-74
2022/05/30 02:31:53;;;;;;;10.90;2.30;;;10.10;99.90;;;;;;5039291;28;20026;-74
2022/05/30 02:37:03;;;;;;;13.40;2.90;;;10.10;99.90;;;;;;5038643;28;20572;-74
2022/05/30 02:39:29;;;;;;;11.98;2.75;;;10.00;99.90;;;;;;5038132;28;20021;-75
2022/05/30 02:41:56;;;;;;;11.25;2.58;;;10.00;99.90;;;;;;5037487;28;20075;-74
2022/05/30 02:44:23;;;;;;;7.85;2.47;;;10.10;99.90;;;;;;5038921;28;20030;-75
2022/05/30 02:46:51;;;;;;;14.90;3.10;;;10.00;99.90;;;;;;5038455;28;20116;-74
2022/05/30 02:49:17;;;;;;;14.35;2.53;;;10.00;99.90;;;;;;5038763;28;20026;-75
2022/05/30 02:51:44;;;;;;;11.70;2.22;;;10.00;99.90;;;;;;5036711;28;20155;-74
2022/05/30 02:54:11;;;;;;;11.30;2.30;;;10.00;99.90;;;;;;5038016;28;20483;-73
2022/05/30 02:56:38;;;;;;;8.35;2.17;;;10.00;99.90;;;;;;5049818;28;20045;-74
2022/05/30 02:59:04;;;;;;;19.35;3.10;;;10.00;99.90;;;;;;5038712;28;20127;-74
2022/05/30 03:01:31;;;;;;;17.98;4.07;;;9.90;99.90;;;;;;5039660;28;20025;-74
2022/05/30 03:03:58;;;;;;;8.55;2.60;;;9.80;99.90;;;;;;5038825;28;20449;-74
2022/05/30 03:06:24;;;;;;;6.75;2.30;;;9.90;99.90;;;;;;5041766;28;20085;-74
2022/05/30 03:08:50;;;;;;;8.60;3.05;;;9.80;99.90;;;;;;5050310;28;20048;-73
2022/05/30 03:11:16;;;;;;;10.57;2.42;;;9.80;99.90;;;;;;5046933;28;20030;-73
2022/05/30 03:13:41;;;;;;;10.77;3.00;;;9.80;99.90;;;;;;5037097;28;20036;-73
2022/05/30 03:16:07;;;;;;;10.38;3.33;;;9.70;99.90;;;;;;5038110;28;20111;-73
2022/05/30 03:18:33;;;;;;;13.57;3.45;;;9.70;99.90;;;;;;5038130;28;20026;-73
2022/05/30 03:20:59;;;;;;;13.45;2.90;;;9.70;99.90;;;;;;5038633;28;20022;-74
2022/05/30 03:23:24;;;;;;;16.73;2.78;;;9.60;99.90;;;;;;5037951;28;20080;-74
2022/05/30 03:25:50;;;;;;;12.25;3.33;;;9.60;99.90;;;;;;5038433;28;20033;-73
2022/05/30 03:28:16;;;;;;;11.73;3.45;;;9.60;99.90;;;;;;5038028;28;20435;-74
2022/05/30 03:30:41;;;;;;;11.00;3.72;;;9.50;99.90;;;;;;5043296;28;20026;-69
2022/05/30 03:33:08;;;;;;;17.92;2.85;;;9.50;99.90;;;;;;5037436;28;20022;-69
2022/05/30 03:35:35;;;;;;;24.08;4.03;;;9.50;99.90;;;;;;5037558;28;20071;-69
2022/05/30 03:38:01;;;;;;;9.75;3.13;;;9.60;99.90;;;;;;5037533;28;20028;-70
2022/05/30 03:40:27;;;;;;;14.43;3.67;;;9.60;99.90;;;;;;5039556;28;20100;-70
2022/05/30 03:42:53;;;;;;;10.18;2.67;;;9.60;99.90;;;;;;5038575;28;20025;-70
2022/05/30 03:45:19;;;;;;;17.50;3.90;;;9.50;99.90;;;;;;5037674;28;20022;-70
2022/05/30 03:47:46;;;;;;;11.57;2.80;;;9.60;99.90;;;;;;5036548;28;20510;-69
2022/05/30 03:50:19;;;;;;;10.45;2.70;;;9.70;99.90;;;;;;5036779;28;20026;-69
2022/05/30 03:52:44;;;;;;;12.20;3.22;;;9.60;99.90;;;;;;5036927;28;20505;-70
2022/05/30 03:55:14;;;;;;;15.48;4.10;;;9.60;99.90;;;;;;5035994;28;20037;-70
2022/05/30 03:57:40;;;;;;;9.18;2.53;;;9.50;99.90;;;;;;5018458;28;20487;-70
2022/05/30 04:00:12;;;;;;;18.02;3.15;;;9.60;99.90;;;;;;5039161;28;20021;-70
2022/05/30 04:02:38;;;;;;;14.07;3.60;;;9.50;99.90;;;;;;5040552;28;20168;-70
2022/05/30 04:05:04;;;;;;;13.00;3.47;;;9.60;99.90;;;;;;5042427;28;20057;-72
2022/05/30 04:07:30;;;;;;;7.95;2.72;;;9.60;99.90;;;;;;5043080;28;20029;-70
2022/05/30 04:09:55;;;;;;;12.07;3.17;;;9.60;99.90;;;;;;5027705;28;20056;-70
2022/05/30 04:12:22;;;;;;;10.85;3.20;;;9.60;99.90;;;;;;5044920;28;20044;-70
2022/05/30 04:14:59;;;;;;;11.43;3.20;;;9.70;99.90;;;;;;5043616;28;20036;-70
2022/05/30 04:17:25;;;;;;;10.35;2.78;;;9.80;99.90;;;;;;5034087;28;20313;-70
2022/05/30 04:19:51;;;;;;;7.90;3.10;;;9.80;99.90;;;;;;5036466;28;20045;-70
2022/05/30 04:22:17;;;;;;;15.85;3.53;;;9.80;99.90;;;;;;5036181;28;20029;-70
2022/05/30 04:24:43;;;;;;;16.52;3.33;;;9.80;99.90;;;;;;5037580;28;20026;-71
2022/05/30 04:27:09;;;;;;;12.48;3.17;;;9.80;99.90;;;;;;5037450;28;20126;-70
2022/05/30 04:29:35;;;;;;;7.40;2.88;;;9.80;99.90;;;;;;5041334;28;20033;-70
2022/05/30 04:32:02;;;;;;;17.73;3.03;;;9.80;99.90;;;;;;5035689;28;20487;-70
2022/05/30 04:34:28;;;;;;;8.82;3.38;;;9.90;99.90;;;;;;5035617;28;20034;-70
2022/05/30 04:36:53;;;;;;;7.85;2.58;;;9.90;99.90;;;;;;5017369;28;20021;-70
2022/05/30 04:39:19;;;;;;;13.32;3.40;;;9.90;99.90;;;;;;5034187;28;20079;-68
2022/05/30 04:41:44;;;;;;;10.02;2.85;;;10.00;99.90;;;;;;5032854;28;20120;-69
2022/05/30 04:44:10;;;;;;;10.20;2.17;;;10.00;99.90;;;;;;5016179;28;20060;-69
2022/05/30 04:46:36;;;;;;;6.45;2.05;;;10.10;99.90;;;;;;5035659;28;20028;-69
2022/05/30 04:49:01;;;;;;;4.60;2.20;;;10.10;99.90;;;;;;5035217;28;20034;-69
2022/05/30 04:51:27;;;;;;;8.52;2.00;;;9.90;99.90;;;;;;5034755;28;20430;-72
2022/05/30 04:53:53;;;;;;;8.27;2.50;;;9.90;99.90;;;;;;5031333;28;20029;-69
2022/05/30 04:56:19;;;;;;;8.07;2.33;;;9.90;99.90;;;;;;5018014;28;20044;-69
2022/05/30 04:58:46;;;;;;;9.82;2.30;;;9.90;99.90;;;;;;5034228;28;20068;-69
2022/05/30 05:01:12;;;;;;;8.82;2.30;;;10.00;99.90;;;;;;5034892;28;20030;-70
2022/05/30 05:03:39;;;;;;;9.85;2.10;;;10.00;99.90;;;;;;5033616;28;20076;-69
2022/05/30 05:06:17;;;;;;;6.22;2.10;;;10.00;99.90;;;;;;5037345;28;20370;-68
2022/05/30 05:08:54;;;;;;;7.20;2.30;;;10.00;99.90;;;;;;5037229;28;20100;-69
2022/05/30 05:11:27;;;;;;;6.50;2.20;;;10.10;99.90;;;;;;5038011;28;20096;-68
2022/05/30 05:13:54;;;;;;;7.03;2.40;;;10.10;99.90;;;;;;5037218;28;20060;-69
2022/05/30 05:16:21;;;;;;;7.25;2.10;;;10.10;99.90;;;;;;5039142;28;20061;-69
2022/05/30 05:18:47;;;;;;;7.47;1.95;;;10.10;99.90;;;;;;5036607;28;20018;-69
2022/05/30 05:21:18;;;;;;;5.75;2.05;;;10.10;99.90;;;;;;5036961;28;20033;-68
2022/05/30 05:23:43;;;;;;;13.70;2.65;;;10.20;99.90;;;;;;5037321;28;20013;-70
2022/05/30 05:26:09;;;;;;;7.50;2.00;;;10.30;99.90;;;;;;5035033;28;20034;-69
2022/05/30 05:28:35;;;;;;;7.75;2.40;;;10.30;99.90;;;;;;5033344;28;20029;-69
2022/05/30 05:31:01;;;;;;;8.63;2.47;;;10.30;99.90;;;;;;5035227;28;20483;-69
2022/05/30 05:33:27;;;;;;;12.65;2.50;;;10.30;99.90;;;;;;5035520;28;20128;-69
2022/05/30 05:35:53;;;;;;;3.70;2.08;;;10.30;99.90;;;;;;5036421;28;20033;-68
2022/05/30 05:38:19;;;;;;;9.57;2.15;;;10.30;99.90;;;;;;5037904;28;20517;-68
2022/05/30 05:40:45;;;;;;;5.95;1.92;;;10.30;99.90;;;;;;5019923;28;20022;-69
2022/05/30 05:43:11;;;;;;;5.53;2.40;;;10.40;99.90;;;;;;5038301;28;20022;-68
2022/05/30 05:45:39;;;;;;;9.27;2.05;;;10.40;99.90;;;;;;5035914;28;20026;-68
2022/05/30 05:48:06;;;;;;;7.47;2.75;;;10.40;99.90;;;;;;5035088;28;20044;-68
2022/05/30 05:50:32;;;;;;;10.15;2.20;;;10.50;99.90;;;;;;5035845;28;20459;-69
2022/05/30 05:52:58;;;;;;;4.47;1.98;;;10.50;99.90;;;;;;5038216;28;20040;-69
2022/05/30 05:55:23;;;;;;;11.43;2.63;;;10.50;99.90;;;;;;5039254;28;20487;-68
2022/05/30 05:57:50;;;;;;;7.93;1.98;;;10.40;99.90;;;;;;5038803;28;20025;-69
2022/05/30 06:00:17;;;;;;;9.15;2.63;;;10.40;99.90;;;;;;5039232;28;20033;-69
2022/05/30 06:02:42;;;;;;;5.15;1.88;;;10.50;99.90;;;;;;5038654;28;20091;-69
2022/05/30 06:05:09;;;;;;;5.05;1.88;;;10.60;99.90;;;;;;5039515;28;20022;-69
2022/05/30 06:07:36;;;;;;;7.47;1.80;;;10.60;99.90;;;;;;5038850;28;20037;-69
2022/05/30 06:10:02;;;;;;;7.28;2.05;;;10.50;99.90;;;;;;5038897;28;20028;-70
2022/05/30 06:12:27;;;;;;;7.50;2.00;;;10.70;99.90;;;;;;5038713;28;20018;-70
2022/05/30 06:14:53;;;;;;;5.97;2.10;;;10.70;99.90;;;;;;5039418;28;20025;-71
2022/05/30 06:17:18;;;;;;;10.90;1.92;;;10.80;99.90;;;;;;5038998;28;20025;-69
2022/05/30 06:19:46;;;;;;;11.80;1.80;;;10.80;99.90;;;;;;5038377;28;20087;-69
2022/05/30 06:22:12;;;;;;;8.50;2.03;;;10.90;99.90;;;;;;5038235;28;20036;-69
2022/05/30 06:24:37;;;;;;;5.57;1.60;;;11.00;99.90;;;;;;5039780;28;20021;-69
2022/05/30 06:27:05;;;;;;;8.77;1.50;;;11.10;99.90;;;;;;5038423;28;20120;-70
2022/05/30 06:29:31;;;;;;;9.00;1.70;;;11.20;99.90;;;;;;5020814;28;20076;-70
2022/05/30 06:31:57;;;;;;;4.82;1.83;;;11.40;99.90;;;;;;5039006;28;20025;-69
2022/05/30 06:34:22;;;;;;;7.30;1.50;;;11.40;99.90;;;;;;5038398;28;20175;-69
2022/05/30 06:36:48;;;;;;;11.00;1.98;;;11.40;99.90;;;;;;5038141;28;20158;-69
2022/05/30 06:39:14;;;;;;;4.97;2.25;;;11.50;99.90;;;;;;5038295;28;20022;-69
2022/05/30 06:41:41;;;;;;;4.45;1.95;;;11.50;99.90;;;;;;5038487;28;20032;-69
2022/05/30 06:44:07;;;;;;;8.98;2.08;;;11.50;99.90;;;;;;5038347;28;20048;-70
2022/05/30 06:46:36;;;;;;;6.93;2.05;;;11.60;99.90;;;;;;5039408;28;20035;-70
2022/05/30 06:49:02;;;;;;;11.52;2.03;;;11.60;99.90;;;;;;5040834;28;20024;-70
2022/05/30 06:51:29;;;;;;;10.88;2.20;;;11.80;99.90;;;;;;5041445;28;20041;-70
2022/05/30 06:53:55;;;;;;;8.13;2.00;;;11.90;99.90;;;;;;5046568;28;20134;-70
2022/05/30 06:56:23;;;;;;;4.63;1.63;;;12.00;99.90;;;;;;5044599;28;20052;-69
2022/05/30 06:58:50;;;;;;;7.03;1.48;;;12.10;99.90;;;;;;5037799;28;20017;-69
2022/05/30 07:01:18;;;;;;;3.30;1.45;;;12.30;99.90;;;;;;5036382;28;20391;-69
2022/05/30 07:03:45;;;;;;;8.23;1.83;;;12.50;99.90;;;;;;5036624;28;20017;-69
2022/05/30 07:06:14;;;;;;;6.10;1.73;;;12.60;99.90;;;;;;5037226;28;20026;-69
2022/05/30 07:08:41;;;;;;;6.18;1.95;;;12.60;99.90;;;;;;5036503;28;20116;-69
2022/05/30 07:11:07;;;;;;;4.88;1.48;;;12.50;99.90;;;;;;5037812;28;20026;-69
2022/05/30 07:13:33;;;;;;;8.65;1.52;;;12.50;99.90;;;;;;5037151;28;20036;-69
2022/05/30 07:15:59;;;;;;;4.13;1.50;;;12.50;99.90;;;;;;5037932;28;20026;-69
2022/05/30 07:18:25;;;;;;;5.25;1.63;;;12.50;99.90;;;;;;5037247;28;20030;-70
2022/05/30 07:21:03;;;;;;;5.72;1.60;;;12.60;99.90;;;;;;5037599;28;20017;-69
2022/05/30 07:23:30;;;;;;;7.78;1.40;;;12.70;99.90;;;;;;5037780;28;20079;-69
2022/05/30 07:26:01;;;;;;;4.50;1.80;;;12.80;99.90;;;;;;5036999;28;20029;-70
2022/05/30 07:28:31;;;;;;;5.75;1.40;;;12.80;99.90;;;;;;5036233;28;20022;-70
2022/05/30 07:31:05;;;;;;;6.78;1.60;;;12.80;99.90;;;;;;5037408;28;20387;-70
2022/05/30 07:33:32;;;;;;;4.03;1.83;;;12.80;99.90;;;;;;5019652;28;20025;-69
2022/05/30 07:35:58;;;;;;;3.95;1.20;;;12.70;99.90;;;;;;5037076;28;20021;-69
2022/05/30 07:38:24;;;;;;;1.75;1.10;;;12.60;99.90;;;;;;5037321;28;20025;-70
2022/05/30 07:40:49;;;;;;;4.43;1.20;;;12.70;99.90;;;;;;5038171;28;20025;-70
2022/05/30 07:43:15;;;;;;;4.75;1.40;;;12.80;99.90;;;;;;5037474;28;20539;-70
2022/05/30 07:45:40;;;;;;;5.13;1.38;;;12.80;99.90;;;;;;5020409;28;20041;-70
2022/05/30 07:48:07;;;;;;;3.80;1.25;;;12.70;99.90;;;;;;5037841;28;20065;-69
2022/05/30 07:50:37;;;;;;;5.60;1.35;;;12.70;99.90;;;;;;5035774;28;20033;-70
2022/05/30 07:53:04;;;;;;;3.90;1.20;;;12.90;99.90;;;;;;5036089;28;20431;-69
2022/05/30 07:55:29;;;;;;;5.68;1.58;;;12.90;99.90;;;;;;5036849;28;20022;-70
2022/05/30 07:57:55;;;;;;;3.58;1.70;;;12.90;99.90;;;;;;5036670;28;20032;-69
2022/05/30 08:00:27;;;;;;;1.40;1.30;;;13.00;99.90;;;;;;5020358;28;20029;-69
2022/05/30 08:02:53;;;;;;;2.33;1.02;;;13.00;99.90;;;;;;5037864;28;20108;-70
2022/05/30 08:05:19;;;;;;;5.60;1.48;;;12.90;99.90;;;;;;5020763;28;20479;-70
2022/05/30 08:07:45;;;;;;;4.50;1.48;;;12.80;99.90;;;;;;5038244;28;20017;-70
2022/05/30 08:10:12;;;;;;;4.78;1.20;;;12.70;99.90;;;;;;5037596;28;20479;-70
2022/05/30 08:12:38;;;;;;;3.10;1.40;;;12.80;99.90;;;;;;5036386;28;20141;-70
2022/05/30 08:15:05;;;;;;;7.00;1.55;;;12.90;99.90;;;;;;5036135;28;20037;-69
2022/05/30 08:17:30;;;;;;;4.47;1.40;;;13.00;99.90;;;;;;5037333;28;20037;-69
2022/05/30 08:19:59;;;;;;;4.28;1.25;;;13.10;99.90;;;;;;5036996;28;20048;-69
2022/05/30 08:22:25;;;;;;;6.10;1.70;;;13.30;99.90;;;;;;5036253;28;20017;-68
2022/05/30 08:24:52;;;;;;;5.95;0.98;;;13.40;99.90;;;;;;5036265;28;20036;-68
2022/05/30 08:27:18;;;;;;;2.00;0.70;;;13.50;99.90;;;;;;5035713;28;20029;-68
2022/05/30 08:29:44;;;;;;;5.82;1.23;;;13.60;99.90;;;;;;5036374;28;20029;-69
2022/05/30 08:32:10;;;;;;;4.88;1.42;;;13.70;99.90;;;;;;5036570;28;20040;-69
2022/05/30 08:34:36;;;;;;;2.70;1.08;;;13.80;99.90;;;;;;5036168;28;20045;-69
2022/05/30 08:37:03;;;;;;;4.63;1.30;;;13.90;99.90;;;;;;5035907;28;20036;-69
2022/05/30 08:42:13;;;;;;;3.78;0.90;;;14.10;99.90;;;;;;5036490;28;20240;-69
2022/05/30 08:44:40;;;;;;;3.33;1.30;;;14.20;99.90;;;;;;5036045;28;20165;-69
2022/05/30 08:47:30;;;;;;;6.20;1.20;;;14.20;99.90;;;;;;5018539;28;20026;-69
2022/05/30 08:50:08;;;;;;;4.15;1.27;;;14.10;99.90;;;;;;5034986;28;20025;-69
2022/05/30 08:52:53;;;;;;;6.35;0.98;;;14.00;99.90;;;;;;5034532;28;20391;-69
2022/05/30 08:55:26;;;;;;;2.80;1.15;;;13.90;99.90;;;;;;5036283;28;20040;-69
2022/05/30 08:58:16;;;;;;;4.43;1.00;;;14.00;99.90;;;;;;5035549;28;20029;-69
2022/05/30 09:00:51;;;;;;;6.40;1.27;;;13.90;99.90;;;;;;5036028;28;20026;-69
2022/05/30 09:03:23;;;;;;;2.00;1.20;;;14.00;99.90;;;;;;5036632;28;20470;-69
2022/05/30 09:05:54;;;;;;;2.67;1.27;;;14.00;99.90;;;;;;5037929;28;20033;-68
2022/05/30 09:08:29;;;;;;;5.60;1.40;;;13.80;99.90;;;;;;5037025;28;20456;-69
2022/05/30 09:11:00;;;;;;;4.20;0.98;;;13.80;99.90;;;;;;5019626;28;20057;-69
2022/05/30 09:13:34;;;;;;;5.03;1.08;;;14.00;99.90;;;;;;5037099;28;20080;-68
2022/05/30 09:16:12;;;;;;;2.55;0.75;;;14.10;99.90;;;;;;5036556;28;20036;-69
2022/05/30 09:18:51;;;;;;;4.43;1.27;;;14.50;99.90;;;;;;5037233;28;20029;-68
2022/05/30 09:21:18;;;;;;;3.13;1.02;;;14.80;99.90;;;;;;5038436;28;20022;-69
2022/05/30 09:23:44;;;;;;;5.38;1.30;;;15.10;99.90;;;;;;5039603;28;20030;-69
2022/05/30 09:26:17;;;;;;;3.20;0.93;;;15.10;99.90;;;;;;5042003;28;20044;-69
2022/05/30 09:28:45;;;;;;;5.22;1.23;;;15.00;99.90;;;;;;5048178;28;20104;-68
2022/05/30 09:31:31;;;;;;;2.25;1.02;;;14.70;99.90;;;;;;5064780;22;20060;-51
2022/05/30 09:33:59;;;;;;;2.83;1.10;;;14.70;99.90;;;;;;5053103;28;20049;-50
2022/05/30 09:36:30;;;;;;;3.80;1.20;;;14.50;99.90;;;;;;5052745;28;20017;-51
2022/05/30 09:39:01;;;;;;;4.70;0.90;;;14.40;99.90;;;;;;5052660;28;20108;-49
2022/05/30 09:41:56;;;;;;;5.53;1.25;;;14.20;99.90;;;;;;5052165;28;20079;-51
2022/05/30 09:44:38;;;;;;;2.83;1.17;;;14.10;99.90;;;;;;5052942;28;20060;-52
2022/05/30 09:47:13;;;;;;;;;;;14.00;99.90;;;;;;5053148;28;20148;-51
2022/05/30 09:49:41;;;;;;;3.92;0.73;;;14.20;99.90;;;;;;5053036;28;19959;-53
2022/05/30 09:52:32;;;;;;;5.30;1.23;;;14.40;99.90;;;;;;5052364;28;20067;-48
2022/05/30 09:54:58;;;;;;;4.80;0.82;;;14.60;99.90;;;;;;5052478;28;20500;-50
2022/05/30 09:57:32;;;;;;;6.65;0.85;;;14.90;99.90;;;;;;5052441;28;20025;-51
2022/05/30 10:00:16;;;;;;;1.27;0.85;;;15.10;99.90;;;;;;5052325;28;20041;-47
2022/05/30 10:02:45;;;;;;;2.70;1.13;;;15.30;99.90;;;;;;5052134;28;20033;-49
2022/05/30 10:05:13;;;;;;;3.17;0.98;;;15.30;99.90;;;;;;5052137;28;20112;-48
2022/05/30 10:07:51;;;;;;;3.83;1.20;;;14.90;99.90;;;;;;5051566;28;20029;-47
2022/05/30 10:10:26;;;;;;;5.50;1.50;;;14.30;99.90;;;;;;5041138;28;20030;-48
2022/05/30 10:13:04;;;;;;;4.47;0.68;;;14.10;99.90;;;;;;5051852;28;20111;-51
2022/05/30 10:15:37;;;;;;;2.63;0.88;;;13.90;99.90;;;;;;5052584;28;20024;-49
2022/05/30 10:18:16;;;;;;;2.30;0.85;;;13.90;99.90;;;;;;5051921;28;20057;-49
2022/05/30 10:20:50;;;;;;;2.17;1.02;;;13.90;99.90;;;;;;5052242;28;20028;-49
2022/05/30 10:29:33;;;;;;;5.07;1.33;;;13.80;99.90;;;;;;5052202;28;20144;-48
2022/05/30 10:32:19;;;;;;;2.83;1.17;;;13.80;99.90;;;;;;5051742;28;20414;-49
2022/05/30 10:35:09;;;;;;;3.65;1.05;;;13.70;99.90;;;;;;5049908;28;20036;-47
2022/05/30 10:38:06;;;;;;;5.45;1.27;;;13.70;99.90;;;;;;5040928;28;20528;-48
2022/05/30 10:40:38;;;;;;;2.47;0.70;;;13.50;99.90;;;;;;5017388;28;20037;-47
2022/05/30 10:43:13;;;;;;;3.17;1.83;;;13.40;99.90;;;;;;5049040;28;20025;-53
2022/05/30 10:45:57;;;;;;;5.25;1.00;;;13.30;99.90;;;;;;5043720;28;20037;-50
2022/05/30 10:48:31;;;;;;;2.90;0.90;;;13.20;99.90;;;;;;5035320;28;20053;-48
2022/05/30 10:51:02;;;;;;;3.25;0.98;;;13.20;99.90;;;;;;5037792;28;20029;-48
2022/05/30 10:53:47;;;;;;;3.72;1.23;;;13.20;99.90;;;;;;5043789;28;20053;-47
2022/05/30 10:56:20;;;;;;;2.25;1.00;;;13.20;99.90;;;;;;5035310;28;20017;-49
2022/05/30 10:58:58;;;;;;;4.03;1.00;;;13.40;99.90;;;;;;5035326;28;20028;-47
2022/05/30 11:01:37;;;;;;;2.72;1.00;;;13.50;99.90;;;;;;5035301;28;20021;-48
2022/05/30 11:04:47;;;;;;;6.45;1.20;;;13.50;99.90;;;;;;5035116;28;20121;-51
2022/05/30 11:07:46;;;;;;;5.20;1.00;;;13.70;99.90;;;;;;5035238;28;20036;-49
2022/05/30 11:10:47;;;;;;;2.03;0.85;;;13.80;99.90;;;;;;5017086;28;20185;-53
2022/05/30 11:13:39;;;;;;;3.72;0.75;;;14.00;99.90;;;;;;5034988;28;20020;-48
2022/05/30 11:16:18;;;;;;;2.17;0.77;;;14.20;99.90;;;;;;5038876;28;20077;-48
2022/05/30 11:18:54;;;;;;;4.03;1.65;;;14.10;99.90;;;;;;5043774;28;20039;-51
2022/05/30 11:21:27;;;;;;;2.83;1.05;;;14.20;99.90;;;;;;5038635;28;20033;-49
2022/05/30 11:23:53;;;;;;;2.75;1.15;;;14.20;99.90;;;;;;5034889;28;20021;-49
2022/05/30 11:26:59;;;;;;;5.35;1.30;;;14.20;99.90;;;;;;5035303;28;20048;-53
2022/05/30 11:29:37;;;;;;;1.95;1.13;;;14.40;99.90;;;;;;5034507;28;20099;-48
2022/05/30 11:32:45;;;;;;;3.33;1.45;;;14.50;99.90;;;;;;5038822;28;20026;-50
2022/05/30 11:35:28;;;;;;;5.10;1.50;;;14.60;99.90;;;;;;5017805;28;20082;-48
2022/05/30 11:38:10;;;;;;;3.65;1.30;;;14.80;99.90;;;;;;5043230;28;20029;-48
2022/05/30 11:40:50;;;;;;;2.78;1.30;;;15.00;99.90;;;;;;5035089;28;20351;-49
2022/05/30 11:43:48;;;;;;;6.00;1.10;;;14.90;99.90;;;;;;5034581;28;20497;-51
2022/05/30 11:46:38;;;;;;;4.75;1.20;;;15.00;99.90;;;;;;5035111;28;20030;-49
2022/05/30 11:49:17;;;;;;;1.33;0.80;;;15.20;99.90;;;;;;5034771;28;20554;-49
2022/05/30 11:51:56;;;;;;;3.42;1.02;;;15.40;99.90;;;;;;5035269;28;20104;-48
2022/05/30 11:55:06;;;;;;;4.50;1.00;;;15.50;99.90;;;;;;5043871;28;20155;-48
2022/05/30 11:57:48;;;;;;;6.25;1.05;;;15.70;99.90;;;;;;4990407;28;20371;-51
2022/05/30 12:00:33;;;;;;;4.13;1.23;;;15.70;99.90;;;;;;5045597;28;20094;-48
2022/05/30 12:03:14;;;;;;;2.55;0.90;;;15.70;99.90;;;;;;5031498;28;20093;-51
2022/05/30 12:05:57;;;;;;;1.48;0.95;;;15.40;99.90;;;;;;5032916;28;20029;-47
2022/05/30 12:08:37;;;;;;;1.88;0.80;;;15.50;99.90;;;;;;5032836;28;20129;-51
2022/05/30 12:11:41;;;;;;;2.38;0.90;;;15.50;99.90;;;;;;5032564;28;20032;-48
2022/05/30 12:14:31;;;;;;;1.92;0.80;;;15.70;99.90;;;;;;5032839;28;20104;-48
2022/05/30 12:17:34;;;;;;;1.80;1.05;;;15.70;99.90;;;;;;5033568;28;20083;-51
2022/05/30 12:25:53;;;;;;;1.73;1.10;;;15.40;99.90;;;;;;5034076;28;20391;-50
2022/05/30 12:28:45;;;;;;;0.88;0.70;;;15.60;99.90;;;;;;5033239;28;20017;-48
2022/05/30 12:31:31;;;;;;;2.90;0.90;;;15.70;99.90;;;;;;5028540;28;20072;-47
2022/05/30 12:33:56;;;;;;;2.35;0.73;;;15.60;99.90;;;;;;5033035;28;20026;-48
2022/05/30 12:36:22;;;;;;;2.22;0.93;;;15.80;99.90;;;;;;5032949;28;20387;-49
2022/05/30 12:39:21;;;;;;;2.58;1.10;;;15.90;99.90;;;;;;5033076;28;20103;-49
2022/05/30 12:41:58;;;;;;;4.72;0.93;;;16.10;99.90;;;;;;5032874;28;20059;-47
2022/05/30 12:44:45;;;;;;;3.63;1.00;;;16.30;99.90;;;;;;5033160;28;20414;-48
2022/05/30 12:47:31;;;;;;;2.88;0.70;;;16.00;99.90;;;;;;5032568;28;20029;-47
2022/05/30 12:50:23;;;;;;;1.60;0.57;;;16.00;99.90;;;;;;5015171;28;20026;-49
2022/05/30 12:52:54;;;;;;;2.30;0.80;;;16.00;99.90;;;;;;4986498;28;20033;-47
2022/05/30 12:55:50;;;;;;;2.58;0.70;;;16.20;99.90;;;;;;5015284;28;20056;-46
2022/05/30 12:58:22;;;;;;;3.15;0.85;;;16.00;99.90;;;;;;5012553;28;20033;-48
2022/05/30 13:01:05;;;;;;;2.10;0.80;;;16.20;99.90;;;;;;5032540;28;20028;-48
2022/05/30 13:03:33;;;;;;;4.10;0.90;;;16.40;99.90;;;;;;5045833;28;20108;-47
2022/05/30 13:06:19;;;;;;;3.95;0.90;;;16.70;99.90;;;;;;5049970;28;20386;-50
2022/05/30 13:09:01;;;;;;;0.93;0.80;;;16.70;99.90;;;;;;5051581;28;20021;-48
2022/05/30 13:11:41;;;;;;;4.20;1.05;;;16.80;99.90;;;;;;5048366;28;20028;-48
2022/05/30 13:14:36;;;;;;;2.40;1.25;;;16.60;99.90;;;;;;5044059;28;20028;-48
2022/05/30 13:17:18;;;;;;;0.70;0.70;;;16.70;99.90;;;;;;5040410;28;20033;-49
2022/05/30 13:19:48;;;;;;;2.33;0.80;;;16.80;99.90;;;;;;5033022;28;20505;-51
2022/05/30 13:22:26;;;;;;;2.38;0.95;;;16.80;99.90;;;;;;5032666;28;20029;-49
2022/05/30 13:24:53;;;;;;;4.00;0.90;;;16.90;99.90;;;;;;5032559;28;20030;-49
2022/05/30 13:27:19;;;;;;;2.22;1.10;;;16.90;99.90;;;;;;5039901;28;20032;-49